Penarth, United Kingdom
Current Conditions -  °F | °C
As of 10:20 PM on Saturday 25 Oct 2014 (Local Time) from EGFF Reporting Station
Drizzle Drizzle  
Wind Chill: 55°   Ceiling: 1300
Heat Index: 55°   Visibility: 2.7mi
Dew Point: 52°   Wind: 13mph
Humidity: 88%   Direction: 250°WSW
Pressure: 30.12"   Gusts: NA
Location:  51.44°N, 3.18°W
Report Text: EGFF 252120Z AUTO 25011KT 4400 DZ BKN013 OVC044 13/11 Q1020 RERA
Loading
Personal Weather Stations






























Interactive Weather Map
Tropical Storm Tracking
New forecast layout! Learn more

10-Day Weather Forecast

Advertisements
Track Severe Weather on mobile